Аэропорт: Черновцы. Черновцы

ICAO: UKLN

METAR:
Информация по данной станции не доступна
METAR:
2021-01-24 09:08:00
TAF AMD UKLN 240908Z 2409/2418 11004MPS 5000 BR BKN010 BKN025CB TX07/2412Z TN02/2409Z TEMPO 2409/2412 1500 -SHRA BR BKN006 BKN015CB